Overseas Long Beach — WAAT — position and weather

sailwx.info

Track history (hours):
 
Tides and Currents Weather Stations Pressure Air Temp Water Temp Dewpoint Dewpoint Depression Visibility Wind Speed Wind Dir Waves Ship Positions

Overseas Long Beach

Owner: ASC Leasing II, Inc., Philadelphia, PA. More information available from US FCC via Universal Licensing System and Coast Guard Vessel Documentation Center.

Last reported at 2014-Nov-20 21:32 UTC. Time now 2014-Nov-21 16:37 UTC.
Position N 26°56' W 079°42'.

Length 181 m; draft 10.7 m.

Type: Tanker. MMSI: 367703000.

Date/timePositionNaut miles runAvg speedWind from/ knotsBaromVisibWave heightAir tempDewpointWater temp
2014-Nov-20 21:32N 26°56' W 079°42'2516.9
2014-Nov-20 20:04N 26°31' W 079°42'916.6
2014-Nov-20 19:33N 26°22' W 079°42'1616.1
2014-Nov-20 18:33N 26°07' W 079°45'1616.4
2014-Nov-20 17:33N 25°51' W 079°50'2016.5
2014-Nov-20 16:22N 25°32' W 079°56'16413.3
2014-Nov-20 04:00N 24°06' W 082°30'15414.0 030 / 321019.010.8 21.119.0
2014-Nov-19 17:00N 25°18' W 085°00'   030 / 261025.510.8 17.813.0
2014-Nov-11 06:11N 29°36' W 089°50'0 0.0
2014-Nov-11 05:23N 29°36' W 089°50'0 0.0
2014-Nov-11 04:32N 29°36' W 089°50'  
Track history (hours):
 
Tides and Currents Weather Stations Pressure Air Temp Water Temp Dewpoint Dewpoint Depression Visibility Wind Speed Wind Dir Waves Ship Positions

Overseas Long Beach

Owner: ASC Leasing II, Inc., Philadelphia, PA. More information available from US FCC via Universal Licensing System and Coast Guard Vessel Documentation Center.

Last reported at 2014-Nov-20 21:32 UTC. Time now 2014-Nov-21 16:37 UTC.
Position N 26°56' W 079°42'.

Length 181 m; draft 10.7 m.

Type: Tanker. MMSI: 367703000.

Date/timePositionNaut miles runAvg speedWind from/ knotsBaromVisibWave heightAir tempDewpointWater temp
2014-Nov-20 21:32N 26°56' W 079°42'2516.9
2014-Nov-20 20:04N 26°31' W 079°42'916.6
2014-Nov-20 19:33N 26°22' W 079°42'1616.1
2014-Nov-20 18:33N 26°07' W 079°45'1616.4
2014-Nov-20 17:33N 25°51' W 079°50'2016.5
2014-Nov-20 16:22N 25°32' W 079°56'16413.3
2014-Nov-20 04:00N 24°06' W 082°30'15414.0 030 / 321019.010.8 21.119.0
2014-Nov-19 17:00N 25°18' W 085°00'   030 / 261025.510.8 17.813.0
2014-Nov-11 06:11N 29°36' W 089°50'0 0.0
2014-Nov-11 05:23N 29°36' W 089°50'0 0.0
2014-Nov-11 04:32N 29°36' W 089°50'  

Dump ship's entire track history